createdAt,value
2018-12-29T00:01:40.687Z,26.27
2018-12-29T00:04:09.720Z,27.22
2018-12-29T00:06:39.377Z,25.97
2018-12-29T00:09:08.611Z,27.65
2018-12-29T00:11:37.490Z,28.15
2018-12-29T00:14:06.711Z,26.52
2018-12-29T00:16:43.249Z,27.30
2018-12-29T00:19:12.315Z,27.58
2018-12-29T00:21:41.703Z,23.50
2018-12-29T00:24:11.355Z,27.20
2018-12-29T00:26:40.742Z,26.85
2018-12-29T00:29:15.267Z,26.85
2018-12-29T00:31:44.388Z,25.72
2018-12-29T00:34:13.258Z,27.87
2018-12-29T00:36:42.374Z,27.95
2018-12-29T00:39:11.773Z,26.90
2018-12-29T00:41:41.518Z,24.40
2018-12-29T00:44:10.462Z,29.20
2018-12-29T00:46:42.048Z,27.42
2018-12-29T00:49:24.884Z,27.07
2018-12-29T00:51:55.889Z,26.93
2018-12-29T00:54:26.463Z,26.33
2018-12-29T00:56:55.487Z,27.48
2018-12-29T00:59:24.256Z,26.00
2018-12-29T01:01:53.098Z,26.02
2018-12-29T01:04:22.208Z,27.17
2018-12-29T01:06:51.203Z,25.10
2018-12-29T01:09:21.144Z,26.45
2018-12-29T01:11:50.346Z,26.80
2018-12-29T01:14:19.499Z,27.77
2018-12-29T01:16:48.644Z,29.80
2018-12-29T01:19:17.643Z,27.98
2018-12-29T01:21:46.672Z,27.10
2018-12-29T01:24:15.814Z,26.37
2018-12-29T01:26:44.719Z,28.15
2018-12-29T01:29:13.714Z,26.57
2018-12-29T01:31:44.688Z,26.62
2018-12-29T01:34:13.599Z,27.42
2018-12-29T01:36:42.739Z,23.25
2018-12-29T01:39:11.842Z,25.55
2018-12-29T01:41:41.045Z,25.90
2018-12-29T01:44:10.066Z,25.10
2018-12-29T01:46:38.832Z,25.30
2018-12-29T01:49:13.515Z,26.02
2018-12-29T01:51:42.547Z,23.25
2018-12-29T01:54:11.667Z,24.77
2018-12-29T01:56:40.670Z,26.45
2018-12-29T01:59:09.766Z,20.37
2018-12-29T02:01:38.691Z,23.60
2018-12-29T02:04:07.566Z,24.10
2018-12-29T02:06:36.715Z,22.90
2018-12-29T02:09:06.555Z,23.47
2018-12-29T02:11:35.820Z,20.65
2018-12-29T02:14:04.614Z,20.95
2018-12-29T02:16:34.018Z,23.40
2018-12-29T02:19:03.007Z,22.17
2018-12-29T02:21:32.316Z,19.90
2018-12-29T02:24:01.090Z,23.40
2018-12-29T02:26:29.862Z,24.40
2018-12-29T02:28:59.091Z,23.38
2018-12-29T02:31:28.131Z,21.00
2018-12-29T02:33:57.133Z,24.98
2018-12-29T02:36:25.957Z,22.32
2018-12-29T02:38:55.621Z,20.80
2018-12-29T02:41:25.115Z,23.42
2018-12-29T02:43:54.162Z,21.77
2018-12-29T02:46:24.727Z,22.52
2018-12-29T02:48:54.470Z,21.35
2018-12-29T02:51:23.313Z,23.35
2018-12-29T02:53:52.187Z,20.68
2018-12-29T02:56:21.294Z,23.00
2018-12-29T02:58:50.864Z,21.23
2018-12-29T03:01:20.023Z,21.68
2018-12-29T03:03:49.764Z,21.42
2018-12-29T03:06:19.479Z,20.80
2018-12-29T03:08:48.802Z,22.55
2018-12-29T03:11:17.664Z,22.77
2018-12-29T03:13:46.809Z,21.48
2018-12-29T03:16:16.005Z,23.77
2018-12-29T03:18:45.363Z,23.40
2018-12-29T03:21:16.053Z,25.08
2018-12-29T03:23:44.933Z,22.87
2018-12-29T03:26:13.932Z,23.38
2018-12-29T03:28:43.655Z,23.32
2018-12-29T03:31:13.003Z,25.95
2018-12-29T03:33:42.530Z,23.30
2018-12-29T03:36:12.044Z,24.15
2018-12-29T03:38:41.158Z,20.90
2018-12-29T03:41:10.458Z,17.95
2018-12-29T03:43:39.375Z,18.37
2018-12-29T03:46:08.476Z,18.90
2018-12-29T03:48:37.619Z,13.90
2018-12-29T03:51:06.997Z,12.78
2018-12-29T03:53:36.097Z,23.65
2018-12-29T03:56:05.130Z,22.07
2018-12-29T03:58:34.669Z,25.90
2018-12-29T04:01:04.580Z,19.27
2018-12-29T04:03:33.732Z,25.48
2018-12-29T04:06:02.631Z,26.02
2018-12-29T04:08:31.817Z,23.95
2018-12-29T04:11:00.805Z,26.85
2018-12-29T04:13:30.033Z,24.82
2018-12-29T04:15:59.109Z,26.37
2018-12-29T04:18:28.807Z,24.20
2018-12-29T04:20:58.266Z,24.72
2018-12-29T04:23:27.211Z,26.20
2018-12-29T04:25:56.342Z,28.83
2018-12-29T04:28:25.135Z,27.60
2018-12-29T04:30:55.014Z,26.62
2018-12-29T04:33:24.216Z,26.60
2018-12-29T04:35:53.027Z,25.35
2018-12-29T04:38:22.481Z,26.37
2018-12-29T04:40:51.582Z,27.30
2018-12-29T04:43:21.146Z,29.00
2018-12-29T04:45:50.037Z,28.38
2018-12-29T04:48:18.864Z,28.42
2018-12-29T04:50:47.942Z,28.45
2018-12-29T04:53:16.704Z,29.05
2018-12-29T04:55:45.887Z,21.40
2018-12-29T04:58:15.044Z,26.48
2018-12-29T05:00:44.682Z,25.80
2018-12-29T05:03:13.568Z,26.50
2018-12-29T05:05:42.480Z,24.70
2018-12-29T05:08:11.803Z,25.35
2018-12-29T05:10:42.319Z,25.23
2018-12-29T05:13:11.695Z,25.43
2018-12-29T05:15:40.753Z,24.90
2018-12-29T05:18:14.877Z,24.65
2018-12-29T05:20:44.185Z,22.50
2018-12-29T05:23:13.011Z,26.82
2018-12-29T05:25:41.844Z,25.10
2018-12-29T05:28:11.058Z,27.13
2018-12-29T05:30:40.419Z,26.07
2018-12-29T05:33:10.067Z,28.55
2018-12-29T05:35:39.723Z,26.02
2018-12-29T05:38:09.399Z,28.32
2018-12-29T05:40:38.415Z,24.77
2018-12-29T05:43:08.554Z,31.33
2018-12-29T05:45:37.363Z,34.78
2018-12-29T05:48:06.634Z,28.62
2018-12-29T05:50:35.497Z,29.18
2018-12-29T05:53:04.623Z,30.95
2018-12-29T05:55:33.668Z,29.57
2018-12-29T05:58:02.752Z,26.97
2018-12-29T06:00:32.231Z,31.95
2018-12-29T06:03:01.354Z,31.90
2018-12-29T06:05:30.491Z,29.63
2018-12-29T06:07:59.316Z,30.80
2018-12-29T06:10:28.495Z,29.67
2018-12-29T06:12:57.819Z,31.62
2018-12-29T06:15:27.147Z,31.90
2018-12-29T06:17:56.503Z,30.75
2018-12-29T06:20:25.543Z,30.90
2018-12-29T06:22:55.459Z,29.40
2018-12-29T06:25:24.620Z,32.98
2018-12-29T06:27:53.820Z,32.38
2018-12-29T06:30:22.819Z,26.30
2018-12-29T06:32:52.021Z,31.70
2018-12-29T06:35:21.401Z,30.90
2018-12-29T06:37:50.260Z,27.62
2018-12-29T06:40:19.407Z,28.32
2018-12-29T06:42:48.558Z,29.02
2018-12-29T06:45:17.779Z,32.38
2018-12-29T06:47:47.232Z,30.00
2018-12-29T06:50:16.031Z,29.80
2018-12-29T06:52:45.035Z,31.85
2018-12-29T06:55:14.131Z,31.60
2018-12-29T06:57:43.735Z,30.05
2018-12-29T07:00:12.706Z,30.23
2018-12-29T07:02:41.839Z,28.52
2018-12-29T07:05:10.935Z,17.07
2018-12-29T07:07:39.716Z,28.05
2018-12-29T07:10:08.655Z,29.02
2018-12-29T07:12:37.699Z,29.23
2018-12-29T07:15:08.138Z,28.50
2018-12-29T07:17:37.037Z,30.30
2018-12-29T07:20:06.056Z,29.27
2018-12-29T07:22:34.887Z,29.52
2018-12-29T07:25:03.832Z,29.40
2018-12-29T07:27:32.638Z,25.75
2018-12-29T07:30:01.436Z,30.23
2018-12-29T07:32:30.581Z,30.37
2018-12-29T07:34:59.782Z,29.98
2018-12-29T07:37:28.558Z,25.15
2018-12-29T07:39:58.503Z,31.35
2018-12-29T07:42:27.629Z,26.10
2018-12-29T07:44:56.691Z,29.30
2018-12-29T07:47:25.797Z,30.48
2018-12-29T07:49:54.881Z,30.88
2018-12-29T07:52:23.894Z,27.00
2018-12-29T07:54:52.771Z,26.45
2018-12-29T07:57:22.051Z,29.45
2018-12-29T07:59:51.285Z,30.75
2018-12-29T08:02:20.370Z,32.33
2018-12-29T08:04:49.449Z,32.38
2018-12-29T08:07:18.206Z,28.87
2018-12-29T08:09:47.408Z,27.73
2018-12-29T08:12:16.226Z,27.27
2018-12-29T08:14:45.306Z,24.95
2018-12-29T08:17:14.360Z,27.00
2018-12-29T08:19:43.529Z,27.42
2018-12-29T08:22:12.714Z,30.45
2018-12-29T08:24:41.853Z,26.33
2018-12-29T08:27:10.921Z,24.67
2018-12-29T08:29:41.571Z,25.97
2018-12-29T08:32:10.571Z,26.05
2018-12-29T08:34:39.790Z,28.30
2018-12-29T08:37:08.618Z,32.93
2018-12-29T08:39:37.779Z,24.95
2018-12-29T08:42:07.108Z,29.02
2018-12-29T08:44:35.881Z,29.92
2018-12-29T08:47:05.046Z,24.40
2018-12-29T08:49:33.931Z,27.32
2018-12-29T08:52:03.094Z,26.23
2018-12-29T08:54:31.983Z,28.87
2018-12-29T08:57:01.071Z,23.47
2018-12-29T08:59:30.163Z,27.75
2018-12-29T09:01:59.167Z,13.62
2018-12-29T09:04:28.244Z,23.60
2018-12-29T09:06:57.122Z,25.35
2018-12-29T09:09:26.111Z,18.10
2018-12-29T09:11:55.042Z,19.90
2018-12-29T09:14:24.072Z,22.50
2018-12-29T09:16:53.312Z,26.62
2018-12-29T09:19:27.211Z,24.70
2018-12-29T09:21:53.552Z,20.80
2018-12-29T09:24:22.669Z,19.67
2018-12-29T09:26:51.652Z,21.85
2018-12-29T09:29:20.824Z,23.57
2018-12-29T09:31:49.971Z,25.92
2018-12-29T09:34:22.460Z,25.82
2018-12-29T09:36:50.048Z,22.10
2018-12-29T09:39:19.243Z,24.57
2018-12-29T09:41:48.065Z,27.82
2018-12-29T09:44:17.261Z,29.98
2018-12-29T09:46:46.367Z,23.50
2018-12-29T09:49:15.415Z,30.92
2018-12-29T09:51:44.396Z,25.70
2018-12-29T09:54:13.609Z,28.60
2018-12-29T09:56:42.422Z,31.20
2018-12-29T09:59:11.733Z,31.70
2018-12-29T10:01:40.829Z,30.43
2018-12-29T10:04:09.791Z,28.77
2018-12-29T10:06:38.792Z,30.72
2018-12-29T10:09:08.141Z,32.65
2018-12-29T10:11:37.879Z,31.37
2018-12-29T10:14:07.331Z,29.40
2018-12-29T10:16:36.405Z,28.55
2018-12-29T10:19:05.852Z,31.17
2018-12-29T10:21:34.846Z,29.50
2018-12-29T10:24:03.724Z,28.62
2018-12-29T10:26:32.927Z,30.35
2018-12-29T10:29:01.879Z,26.20
2018-12-29T10:31:31.042Z,32.93
2018-12-29T10:34:00.237Z,31.52
2018-12-29T10:36:29.517Z,26.97
2018-12-29T10:38:58.445Z,23.27
2018-12-29T10:41:27.466Z,27.07
2018-12-29T10:43:56.954Z,21.45
2018-12-29T10:46:25.888Z,24.23
2018-12-29T10:48:55.115Z,26.52
2018-12-29T10:51:24.075Z,27.77
2018-12-29T10:53:53.162Z,27.50
2018-12-29T10:56:22.446Z,20.43
2018-12-29T10:58:51.606Z,27.82
2018-12-29T11:01:28.951Z,24.87
2018-12-29T11:03:58.120Z,27.58
2018-12-29T11:06:27.015Z,29.30
2018-12-29T11:08:58.458Z,26.68
2018-12-29T11:11:31.129Z,24.98
2018-12-29T11:13:59.983Z,24.45
2018-12-29T11:16:30.892Z,25.57
2018-12-29T11:18:59.935Z,18.95
2018-12-29T11:21:29.006Z,26.00
2018-12-29T11:23:58.452Z,13.83
2018-12-29T11:26:27.543Z,22.87
2018-12-29T11:28:56.712Z,23.25
2018-12-29T11:31:25.768Z,17.40
2018-12-29T11:33:58.500Z,16.85
2018-12-29T11:36:27.519Z,20.62
2018-12-29T11:38:56.701Z,24.87
2018-12-29T11:41:25.862Z,30.00
2018-12-29T11:43:54.865Z,22.82
2018-12-29T11:46:24.011Z,19.40
2018-12-29T11:48:52.923Z,21.37
2018-12-29T11:51:22.291Z,19.60
2018-12-29T11:53:51.515Z,26.62
2018-12-29T11:56:24.478Z,21.45
2018-12-29T11:58:53.569Z,15.38
2018-12-29T12:01:25.462Z,17.20
2018-12-29T12:03:55.331Z,15.83
2018-12-29T12:06:30.045Z,20.40
2018-12-29T12:09:02.079Z,17.62
2018-12-29T12:11:35.082Z,17.32
2018-12-29T12:14:06.939Z,24.75
2018-12-29T12:16:38.701Z,20.37
2018-12-29T12:19:08.963Z,23.95
2018-12-29T12:21:41.960Z,24.02
2018-12-29T12:24:11.902Z,24.67
2018-12-29T12:26:41.943Z,26.12
2018-12-29T12:29:11.977Z,22.17
2018-12-29T12:31:42.140Z,19.40
2018-12-29T12:34:13.868Z,22.45
2018-12-29T12:36:43.942Z,20.75
2018-12-29T12:39:13.036Z,18.67
2018-12-29T12:42:01.373Z,24.20
2018-12-29T12:44:33.793Z,20.45
2018-12-29T12:47:02.643Z,20.77
2018-12-29T12:49:32.435Z,21.57
2018-12-29T12:52:01.903Z,23.20
2018-12-29T12:54:30.959Z,22.60
2018-12-29T12:57:00.416Z,18.80
2018-12-29T12:59:30.646Z,14.30
2018-12-29T13:02:00.299Z,18.02
2018-12-29T13:04:32.904Z,14.28
2018-12-29T13:07:01.931Z,20.05
2018-12-29T13:09:31.199Z,17.52
2018-12-29T13:12:00.383Z,17.07
2018-12-29T13:14:29.563Z,18.15
2018-12-29T13:16:58.679Z,22.25
2018-12-29T13:19:28.589Z,21.02
2018-12-29T13:21:58.084Z,18.20
2018-12-29T13:24:27.581Z,23.25
2018-12-29T13:26:56.629Z,16.20
2018-12-29T13:29:26.397Z,23.05
2018-12-29T13:31:55.764Z,21.97
2018-12-29T13:34:25.511Z,22.90
2018-12-29T13:36:55.660Z,25.08
2018-12-29T13:39:27.194Z,20.62
2018-12-29T13:41:56.156Z,25.27
2018-12-29T13:44:25.524Z,20.77
2018-12-29T13:46:57.637Z,23.20
2018-12-29T13:49:26.596Z,22.87
2018-12-29T13:51:56.403Z,20.70
2018-12-29T13:54:25.597Z,22.50
2018-12-29T13:56:54.884Z,19.17
2018-12-29T13:59:23.751Z,23.92
2018-12-29T14:01:53.107Z,27.22
2018-12-29T14:04:22.481Z,26.65
2018-12-29T14:06:51.857Z,26.55
2018-12-29T14:09:21.004Z,25.85
2018-12-29T14:11:50.268Z,27.07
2018-12-29T14:14:19.552Z,23.30
2018-12-29T14:16:48.455Z,23.07
2018-12-29T14:19:17.942Z,15.03
2018-12-29T14:21:47.304Z,17.07
2018-12-29T14:24:16.331Z,20.12
2018-12-29T14:26:46.641Z,17.73
2018-12-29T14:29:16.180Z,15.58
2018-12-29T14:31:46.077Z,27.60
2018-12-29T14:34:15.117Z,18.50
2018-12-29T14:36:44.210Z,18.40
2018-12-29T14:39:14.673Z,23.65
2018-12-29T14:41:44.031Z,21.20
2018-12-29T14:44:13.300Z,22.55
2018-12-29T14:46:42.211Z,17.15
2018-12-29T14:49:11.492Z,24.30
2018-12-29T14:51:40.290Z,26.93
2018-12-29T14:54:09.571Z,21.85
2018-12-29T14:56:38.763Z,24.72
2018-12-29T14:59:07.672Z,21.20
2018-12-29T15:01:37.219Z,21.17
2018-12-29T15:04:06.940Z,12.80
2018-12-29T15:06:36.030Z,17.05
2018-12-29T15:09:24.417Z,20.20
2018-12-29T15:11:53.456Z,23.38
2018-12-29T15:14:22.545Z,16.00
2018-12-29T15:16:52.295Z,25.65
2018-12-29T15:19:21.177Z,22.15
2018-12-29T15:21:50.149Z,14.70
2018-12-29T15:24:19.076Z,28.83
2018-12-29T15:26:48.040Z,27.82
2018-12-29T15:29:17.332Z,26.97
2018-12-29T15:31:46.196Z,24.47
2018-12-29T15:34:15.344Z,23.40
2018-12-29T15:36:44.738Z,24.92
2018-12-29T15:39:13.806Z,25.50
2018-12-29T15:41:42.869Z,27.10
2018-12-29T15:44:11.862Z,28.50
2018-12-29T15:46:40.899Z,21.62
2018-12-29T15:49:09.816Z,21.40
2018-12-29T15:51:38.943Z,19.30
2018-12-29T15:54:08.364Z,25.65
2018-12-29T15:56:37.736Z,20.08
2018-12-29T15:59:06.887Z,24.65
2018-12-29T16:01:36.126Z,10.95
2018-12-29T16:04:05.399Z,13.53
2018-12-29T16:06:34.744Z,16.65
2018-12-29T16:09:05.622Z,11.20
2018-12-29T16:11:35.251Z,19.85
2018-12-29T16:14:04.463Z,14.58
2018-12-29T16:16:33.501Z,18.40
2018-12-29T16:19:02.952Z,20.95
2018-12-29T16:21:32.646Z,17.17
2018-12-29T16:24:01.768Z,18.52
2018-12-29T16:26:31.013Z,17.35
2018-12-29T16:29:00.341Z,25.15
2018-12-29T16:31:29.385Z,22.20
2018-12-29T16:33:58.669Z,15.45
2018-12-29T16:36:28.072Z,17.48
2018-12-29T16:38:57.160Z,15.18
2018-12-29T16:41:26.391Z,14.95
2018-12-29T16:43:56.087Z,19.15
2018-12-29T16:46:25.163Z,20.55
2018-12-29T16:48:54.419Z,20.70
2018-12-29T16:51:23.942Z,18.35
2018-12-29T16:53:52.732Z,15.65
2018-12-29T16:56:21.524Z,15.83
2018-12-29T16:58:50.634Z,13.35
2018-12-29T17:01:19.731Z,19.00
2018-12-29T17:03:49.307Z,13.05
2018-12-29T17:06:18.612Z,18.98
2018-12-29T17:08:47.733Z,16.42
2018-12-29T17:11:16.703Z,25.05
2018-12-29T17:13:46.620Z,20.25
2018-12-29T17:16:15.919Z,14.63
2018-12-29T17:18:45.069Z,20.10
2018-12-29T17:21:14.761Z,16.37
2018-12-29T17:23:43.770Z,20.12
2018-12-29T17:26:13.013Z,23.00
2018-12-29T17:28:42.316Z,19.17
2018-12-29T17:31:11.922Z,22.82
2018-12-29T17:33:40.942Z,21.77
2018-12-29T17:36:10.565Z,20.80
2018-12-29T17:38:40.872Z,26.10
2018-12-29T17:41:11.285Z,23.92
2018-12-29T17:43:40.880Z,18.52
2018-12-29T17:46:09.803Z,21.48
2018-12-29T17:48:38.593Z,23.62
2018-12-29T17:51:07.591Z,21.00
2018-12-29T17:53:37.254Z,23.50
2018-12-29T17:56:06.640Z,21.25
2018-12-29T17:58:35.896Z,18.42
2018-12-29T18:01:05.203Z,20.55
2018-12-29T18:03:34.693Z,20.85
2018-12-29T18:06:03.812Z,16.40
2018-12-29T18:08:33.303Z,14.13
2018-12-29T18:11:03.092Z,20.00
2018-12-29T18:13:32.571Z,22.35
2018-12-29T18:16:06.054Z,17.95
2018-12-29T18:18:35.625Z,17.80
2018-12-29T18:21:09.073Z,17.67
2018-12-29T18:23:38.198Z,15.08
2018-12-29T18:26:07.386Z,12.85
2018-12-29T18:28:36.406Z,12.78
2018-12-29T18:31:05.475Z,16.30
2018-12-29T18:33:37.346Z,17.85
2018-12-29T18:36:05.374Z,19.15
2018-12-29T18:38:34.420Z,16.40
2018-12-29T18:41:03.940Z,19.67
2018-12-29T18:43:33.179Z,15.08
2018-12-29T18:46:02.332Z,15.80
2018-12-29T18:48:31.533Z,17.55
2018-12-29T18:51:01.184Z,12.43
2018-12-29T18:53:30.160Z,15.58
2018-12-29T18:55:58.977Z,15.43
2018-12-29T18:58:27.806Z,14.53
2018-12-29T19:00:56.591Z,13.72
2018-12-29T19:03:25.664Z,13.15
2018-12-29T19:05:55.834Z,15.23
2018-12-29T19:08:24.764Z,16.93
2018-12-29T19:10:53.944Z,16.45
2018-12-29T19:13:23.696Z,19.85
2018-12-29T19:15:53.453Z,17.92
2018-12-29T19:18:22.708Z,14.28
2018-12-29T19:20:51.624Z,17.98
2018-12-29T19:23:21.406Z,23.42
2018-12-29T19:25:51.123Z,20.32
2018-12-29T19:28:20.607Z,21.15
2018-12-29T19:30:49.717Z,25.75
2018-12-29T19:33:19.161Z,22.30
2018-12-29T19:35:48.756Z,22.73
2018-12-29T19:38:18.397Z,29.85
2018-12-29T19:40:47.993Z,13.70
2018-12-29T19:43:17.865Z,18.25
2018-12-29T19:45:46.897Z,19.20
2018-12-29T19:48:16.152Z,19.85
2018-12-29T19:50:45.235Z,19.67
2018-12-29T19:53:14.676Z,21.50
2018-12-29T19:55:44.029Z,17.92
2018-12-29T19:58:13.124Z,21.10
2018-12-29T20:00:41.975Z,17.82
2018-12-29T20:03:11.728Z,16.35
2018-12-29T20:05:41.396Z,19.15
2018-12-29T20:08:10.307Z,16.48
2018-12-29T20:10:39.317Z,13.22
2018-12-29T20:13:08.997Z,20.85
2018-12-29T20:15:38.174Z,16.15
2018-12-29T20:18:07.174Z,16.15
2018-12-29T20:20:36.309Z,17.55
2018-12-29T20:23:05.311Z,13.95
2018-12-29T20:25:34.678Z,13.85
2018-12-29T20:28:04.415Z,13.83
2018-12-29T20:30:34.474Z,16.80
2018-12-29T20:33:03.981Z,13.10
2018-12-29T20:35:33.267Z,16.07
2018-12-29T20:38:02.350Z,16.10
2018-12-29T20:40:31.537Z,12.70
2018-12-29T20:43:00.604Z,18.75
2018-12-29T20:45:30.111Z,17.23
2018-12-29T20:47:59.333Z,16.27
2018-12-29T20:50:28.784Z,17.17
2018-12-29T20:52:57.564Z,15.80
2018-12-29T20:55:26.900Z,17.60
2018-12-29T20:57:56.009Z,15.40
2018-12-29T21:00:25.248Z,16.93
2018-12-29T21:02:54.561Z,14.63
2018-12-29T21:05:23.403Z,18.85
2018-12-29T21:07:52.448Z,16.93
2018-12-29T21:10:22.144Z,16.30
2018-12-29T21:12:53.698Z,12.47
2018-12-29T21:15:24.009Z,13.93
2018-12-29T21:17:54.288Z,14.38
2018-12-29T21:20:24.474Z,17.57
2018-12-29T21:22:53.718Z,21.40
2018-12-29T21:25:23.068Z,21.95
2018-12-29T21:27:53.937Z,13.38
2018-12-29T21:30:23.507Z,15.45
2018-12-29T21:32:52.887Z,19.42
2018-12-29T21:35:22.117Z,21.20
2018-12-29T21:37:51.366Z,9.25
2018-12-29T21:40:20.585Z,17.90
2018-12-29T21:42:50.666Z,15.18
2018-12-29T21:45:20.112Z,15.08
2018-12-29T21:47:49.080Z,12.13
2018-12-29T21:50:25.448Z,15.65
2018-12-29T21:52:52.798Z,18.37
2018-12-29T21:55:21.957Z,15.80
2018-12-29T21:57:51.697Z,14.98
2018-12-29T22:00:20.937Z,13.40
2018-12-29T22:02:51.504Z,11.70
2018-12-29T22:05:21.644Z,16.10
2018-12-29T22:07:50.982Z,14.18
2018-12-29T22:10:19.900Z,13.05
2018-12-29T22:12:48.921Z,16.67
2018-12-29T22:15:18.107Z,14.28
2018-12-29T22:17:47.538Z,10.60
2018-12-29T22:20:16.418Z,12.58
2018-12-29T22:22:46.519Z,12.30
2018-12-29T22:25:15.960Z,13.80
2018-12-29T22:27:45.346Z,11.12
2018-12-29T22:30:14.208Z,12.13
2018-12-29T22:32:43.691Z,11.30
2018-12-29T22:35:13.031Z,11.60
2018-12-29T22:37:41.941Z,12.55
2018-12-29T22:40:12.309Z,10.00
2018-12-29T22:42:41.197Z,10.63
2018-12-29T22:45:11.156Z,11.15
2018-12-29T22:47:40.167Z,12.53
2018-12-29T22:50:09.522Z,12.60
2018-12-29T22:52:39.180Z,12.05
2018-12-29T22:55:08.075Z,11.78
2018-12-29T22:57:37.279Z,10.68
2018-12-29T23:02:56.365Z,11.83
2018-12-29T23:05:25.880Z,9.40
2018-12-29T23:07:54.939Z,9.88
2018-12-29T23:10:24.086Z,10.15
2018-12-29T23:12:53.264Z,9.15
2018-12-29T23:15:24.791Z,10.45
2018-12-29T23:17:55.414Z,11.43
2018-12-29T23:20:24.557Z,10.75
2018-12-29T23:22:54.369Z,11.03
2018-12-29T23:25:24.285Z,11.40
2018-12-29T23:27:53.481Z,11.50
2018-12-29T23:30:22.727Z,12.20
2018-12-29T23:32:52.299Z,10.00
2018-12-29T23:35:21.479Z,10.70
2018-12-29T23:37:51.608Z,12.63
2018-12-29T23:40:20.803Z,12.53
2018-12-29T23:42:50.202Z,12.10
2018-12-29T23:45:19.543Z,10.58
2018-12-29T23:47:49.329Z,9.28
2018-12-29T23:50:20.295Z,11.25
2018-12-29T23:52:49.858Z,11.33
2018-12-29T23:55:19.407Z,10.75
2018-12-29T23:57:49.195Z,10.53
